sensor_id;sensor_type;location;lat;lon;timestamp;temperature;humidity
42199;DHT22;27868;45.184;5.786;2023-07-02T00:00:27;21.60;90.40
42199;DHT22;27868;45.184;5.786;2023-07-02T00:03:11;21.60;90.20
42199;DHT22;27868;45.184;5.786;2023-07-02T00:05:56;21.60;90.20
42199;DHT22;27868;45.184;5.786;2023-07-02T00:08:41;21.60;90.20
42199;DHT22;27868;45.184;5.786;2023-07-02T00:11:26;21.60;90.20
42199;DHT22;27868;45.184;5.786;2023-07-02T00:14:10;21.60;90.30
42199;DHT22;27868;45.184;5.786;2023-07-02T00:16:55;21.60;90.30
42199;DHT22;27868;45.184;5.786;2023-07-02T00:19:40;21.60;90.30
42199;DHT22;27868;45.184;5.786;2023-07-02T00:22:25;21.60;90.30
42199;DHT22;27868;45.184;5.786;2023-07-02T00:25:10;21.60;90.40
42199;DHT22;27868;45.184;5.786;2023-07-02T00:27:54;21.60;90.70
42199;DHT22;27868;45.184;5.786;2023-07-02T00:30:39;21.50;90.40
42199;DHT22;27868;45.184;5.786;2023-07-02T00:33:23;21.50;90.40
42199;DHT22;27868;45.184;5.786;2023-07-02T00:36:08;21.50;90.40
42199;DHT22;27868;45.184;5.786;2023-07-02T00:38:58;21.50;90.70
42199;DHT22;27868;45.184;5.786;2023-07-02T00:41:43;21.50;90.50
42199;DHT22;27868;45.184;5.786;2023-07-02T00:44:30;21.50;90.50
42199;DHT22;27868;45.184;5.786;2023-07-02T00:47:15;21.50;90.50
42199;DHT22;27868;45.184;5.786;2023-07-02T00:50:00;21.50;90.70
42199;DHT22;27868;45.184;5.786;2023-07-02T00:52:45;21.50;90.40
42199;DHT22;27868;45.184;5.786;2023-07-02T00:55:30;21.50;90.50
42199;DHT22;27868;45.184;5.786;2023-07-02T00:58:14;21.50;90.50
42199;DHT22;27868;45.184;5.786;2023-07-02T01:00:59;21.40;90.50
42199;DHT22;27868;45.184;5.786;2023-07-02T01:04:00;21.40;90.50
42199;DHT22;27868;45.184;5.786;2023-07-02T01:06:45;21.50;90.60
42199;DHT22;27868;45.184;5.786;2023-07-02T01:09:30;21.40;91.00
42199;DHT22;27868;45.184;5.786;2023-07-02T01:12:14;21.40;90.80
42199;DHT22;27868;45.184;5.786;2023-07-02T01:15:02;21.40;90.80
42199;DHT22;27868;45.184;5.786;2023-07-02T01:17:47;21.40;90.80
42199;DHT22;27868;45.184;5.786;2023-07-02T01:20:33;21.40;90.90
42199;DHT22;27868;45.184;5.786;2023-07-02T01:23:18;21.40;90.90
42199;DHT22;27868;45.184;5.786;2023-07-02T01:26:02;21.40;90.90
42199;DHT22;27868;45.184;5.786;2023-07-02T01:28:47;21.40;90.90
42199;DHT22;27868;45.184;5.786;2023-07-02T01:31:31;21.40;90.90
42199;DHT22;27868;45.184;5.786;2023-07-02T01:34:16;21.40;91.30
42199;DHT22;27868;45.184;5.786;2023-07-02T01:37:01;21.40;91.00
42199;DHT22;27868;45.184;5.786;2023-07-02T01:39:45;21.40;91.10
42199;DHT22;27868;45.184;5.786;2023-07-02T01:42:30;21.40;91.10
42199;DHT22;27868;45.184;5.786;2023-07-02T01:45:14;21.30;91.00
42199;DHT22;27868;45.184;5.786;2023-07-02T01:47:59;21.40;91.10
42199;DHT22;27868;45.184;5.786;2023-07-02T01:50:43;21.40;91.10
42199;DHT22;27868;45.184;5.786;2023-07-02T01:53:28;21.30;91.10
42199;DHT22;27868;45.184;5.786;2023-07-02T01:56:12;21.30;91.40
42199;DHT22;27868;45.184;5.786;2023-07-02T01:58:57;21.30;91.20
42199;DHT22;27868;45.184;5.786;2023-07-02T02:01:42;21.30;91.00
42199;DHT22;27868;45.184;5.786;2023-07-02T02:04:27;21.30;91.20
42199;DHT22;27868;45.184;5.786;2023-07-02T02:07:11;21.30;91.20
42199;DHT22;27868;45.184;5.786;2023-07-02T02:09:56;21.20;91.20
42199;DHT22;27868;45.184;5.786;2023-07-02T02:12:40;21.20;91.60
42199;DHT22;27868;45.184;5.786;2023-07-02T02:15:25;21.20;91.40
42199;DHT22;27868;45.184;5.786;2023-07-02T02:18:09;21.10;91.40
42199;DHT22;27868;45.184;5.786;2023-07-02T02:20:54;21.10;91.40
42199;DHT22;27868;45.184;5.786;2023-07-02T02:23:38;21.20;91.50
42199;DHT22;27868;45.184;5.786;2023-07-02T02:26:23;21.20;91.80
42199;DHT22;27868;45.184;5.786;2023-07-02T02:29:09;21.20;91.70
42199;DHT22;27868;45.184;5.786;2023-07-02T02:31:53;21.10;91.40
42199;DHT22;27868;45.184;5.786;2023-07-02T02:34:38;21.20;91.50
42199;DHT22;27868;45.184;5.786;2023-07-02T02:37:23;21.10;91.60
42199;DHT22;27868;45.184;5.786;2023-07-02T02:40:08;21.10;91.50
42199;DHT22;27868;45.184;5.786;2023-07-02T02:42:55;21.10;91.50
42199;DHT22;27868;45.184;5.786;2023-07-02T02:45:40;21.10;91.70
42199;DHT22;27868;45.184;5.786;2023-07-02T02:48:24;21.10;91.60
42199;DHT22;27868;45.184;5.786;2023-07-02T02:51:09;21.10;91.80
42199;DHT22;27868;45.184;5.786;2023-07-02T02:53:53;21.10;91.60
42199;DHT22;27868;45.184;5.786;2023-07-02T02:56:38;21.10;91.70
42199;DHT22;27868;45.184;5.786;2023-07-02T02:59:22;21.10;91.70
42199;DHT22;27868;45.184;5.786;2023-07-02T03:02:07;21.10;91.70
42199;DHT22;27868;45.184;5.786;2023-07-02T03:04:51;21.10;91.70
42199;DHT22;27868;45.184;5.786;2023-07-02T03:07:36;21.10;91.80
42199;DHT22;27868;45.184;5.786;2023-07-02T03:10:21;21.10;91.80
42199;DHT22;27868;45.184;5.786;2023-07-02T03:13:05;21.10;91.80
42199;DHT22;27868;45.184;5.786;2023-07-02T03:15:50;21.00;91.70
42199;DHT22;27868;45.184;5.786;2023-07-02T03:18:34;21.00;91.80
42199;DHT22;27868;45.184;5.786;2023-07-02T03:21:19;21.00;92.10
42199;DHT22;27868;45.184;5.786;2023-07-02T03:24:03;21.00;91.80
42199;DHT22;27868;45.184;5.786;2023-07-02T03:26:48;21.00;91.80
42199;DHT22;27868;45.184;5.786;2023-07-02T03:29:33;21.00;91.80
42199;DHT22;27868;45.184;5.786;2023-07-02T03:32:18;21.00;91.80
42199;DHT22;27868;45.184;5.786;2023-07-02T03:35:02;20.90;91.80
42199;DHT22;27868;45.184;5.786;2023-07-02T03:37:47;20.90;91.90
42199;DHT22;27868;45.184;5.786;2023-07-02T03:40:31;20.90;91.90
42199;DHT22;27868;45.184;5.786;2023-07-02T03:43:16;20.90;91.90
42199;DHT22;27868;45.184;5.786;2023-07-02T03:46:00;20.90;91.90
42199;DHT22;27868;45.184;5.786;2023-07-02T03:48:45;20.90;92.00
42199;DHT22;27868;45.184;5.786;2023-07-02T03:51:30;21.00;92.00
42199;DHT22;27868;45.184;5.786;2023-07-02T03:54:14;20.90;91.90
42199;DHT22;27868;45.184;5.786;2023-07-02T03:56:59;20.90;92.20
42199;DHT22;27868;45.184;5.786;2023-07-02T03:59:44;21.00;92.00
42199;DHT22;27868;45.184;5.786;2023-07-02T04:02:28;20.90;91.90
42199;DHT22;27868;45.184;5.786;2023-07-02T04:05:13;20.90;92.00
42199;DHT22;27868;45.184;5.786;2023-07-02T04:07:57;20.90;92.00
42199;DHT22;27868;45.184;5.786;2023-07-02T04:10:42;20.90;92.00
42199;DHT22;27868;45.184;5.786;2023-07-02T04:13:26;20.90;92.00
42199;DHT22;27868;45.184;5.786;2023-07-02T04:16:11;20.90;92.00
42199;DHT22;27868;45.184;5.786;2023-07-02T04:18:56;20.90;92.00
42199;DHT22;27868;45.184;5.786;2023-07-02T04:21:40;20.90;92.00
42199;DHT22;27868;45.184;5.786;2023-07-02T04:24:25;20.90;92.10
42199;DHT22;27868;45.184;5.786;2023-07-02T04:27:10;20.90;92.10
42199;DHT22;27868;45.184;5.786;2023-07-02T04:29:55;20.90;92.10
42199;DHT22;27868;45.184;5.786;2023-07-02T04:32:40;20.90;92.10
42199;DHT22;27868;45.184;5.786;2023-07-02T04:35:25;20.90;92.10
42199;DHT22;27868;45.184;5.786;2023-07-02T04:38:10;20.90;92.10
42199;DHT22;27868;45.184;5.786;2023-07-02T04:40:54;20.90;92.10
42199;DHT22;27868;45.184;5.786;2023-07-02T04:43:41;20.90;92.20
42199;DHT22;27868;45.184;5.786;2023-07-02T04:46:26;20.90;92.20
42199;DHT22;27868;45.184;5.786;2023-07-02T04:49:10;20.90;92.20
42199;DHT22;27868;45.184;5.786;2023-07-02T04:51:55;20.90;92.20
42199;DHT22;27868;45.184;5.786;2023-07-02T04:54:39;20.80;92.20
42199;DHT22;27868;45.184;5.786;2023-07-02T04:57:24;20.80;92.20
42199;DHT22;27868;45.184;5.786;2023-07-02T05:00:08;20.80;92.20
42199;DHT22;27868;45.184;5.786;2023-07-02T05:02:53;20.80;92.30
42199;DHT22;27868;45.184;5.786;2023-07-02T05:05:37;20.80;92.30
42199;DHT22;27868;45.184;5.786;2023-07-02T05:08:22;20.80;92.30
42199;DHT22;27868;45.184;5.786;2023-07-02T05:11:06;20.80;92.30
42199;DHT22;27868;45.184;5.786;2023-07-02T05:13:52;20.80;92.60
42199;DHT22;27868;45.184;5.786;2023-07-02T05:16:36;20.90;92.40
42199;DHT22;27868;45.184;5.786;2023-07-02T05:19:21;20.80;92.60
42199;DHT22;27868;45.184;5.786;2023-07-02T05:22:05;20.80;92.40
42199;DHT22;27868;45.184;5.786;2023-07-02T05:24:50;20.90;92.70
42199;DHT22;27868;45.184;5.786;2023-07-02T05:27:35;20.90;92.40
42199;DHT22;27868;45.184;5.786;2023-07-02T05:30:19;20.80;92.40
42199;DHT22;27868;45.184;5.786;2023-07-02T05:33:04;20.90;92.50
42199;DHT22;27868;45.184;5.786;2023-07-02T05:35:48;20.90;92.60
42199;DHT22;27868;45.184;5.786;2023-07-02T05:38:33;20.90;92.90
42199;DHT22;27868;45.184;5.786;2023-07-02T05:41:18;20.90;92.70
42199;DHT22;27868;45.184;5.786;2023-07-02T05:44:03;20.90;92.90
42199;DHT22;27868;45.184;5.786;2023-07-02T05:46:47;21.00;92.80
42199;DHT22;27868;45.184;5.786;2023-07-02T05:49:31;20.90;93.10
42199;DHT22;27868;45.184;5.786;2023-07-02T05:52:16;21.00;92.90
42199;DHT22;27868;45.184;5.786;2023-07-02T05:55:00;21.00;93.30
42199;DHT22;27868;45.184;5.786;2023-07-02T05:57:45;21.00;93.00
42199;DHT22;27868;45.184;5.786;2023-07-02T06:00:30;21.10;93.10
42199;DHT22;27868;45.184;5.786;2023-07-02T06:03:15;21.10;93.10
42199;DHT22;27868;45.184;5.786;2023-07-02T06:06:03;21.10;93.10
42199;DHT22;27868;45.184;5.786;2023-07-02T06:08:47;21.10;93.30
42199;DHT22;27868;45.184;5.786;2023-07-02T06:11:32;21.20;93.40
42199;DHT22;27868;45.184;5.786;2023-07-02T06:14:16;21.20;93.10
42199;DHT22;27868;45.184;5.786;2023-07-02T06:17:01;21.20;93.20
42199;DHT22;27868;45.184;5.786;2023-07-02T06:19:50;21.20;93.10
42199;DHT22;27868;45.184;5.786;2023-07-02T06:22:34;21.30;93.00
42199;DHT22;27868;45.184;5.786;2023-07-02T06:25:19;21.30;93.10
42199;DHT22;27868;45.184;5.786;2023-07-02T06:28:03;21.30;93.10
42199;DHT22;27868;45.184;5.786;2023-07-02T06:30:48;21.30;93.20
42199;DHT22;27868;45.184;5.786;2023-07-02T06:33:32;21.30;93.10
42199;DHT22;27868;45.184;5.786;2023-07-02T06:36:17;21.30;93.20
42199;DHT22;27868;45.184;5.786;2023-07-02T06:39:02;21.30;92.90
42199;DHT22;27868;45.184;5.786;2023-07-02T06:41:46;21.30;93.00
42199;DHT22;27868;45.184;5.786;2023-07-02T06:44:31;21.30;92.90
42199;DHT22;27868;45.184;5.786;2023-07-02T06:47:15;21.30;92.80
42199;DHT22;27868;45.184;5.786;2023-07-02T06:50:00;21.30;92.80
42199;DHT22;27868;45.184;5.786;2023-07-02T06:52:44;21.30;92.80
42199;DHT22;27868;45.184;5.786;2023-07-02T06:55:29;21.30;92.80
42199;DHT22;27868;45.184;5.786;2023-07-02T06:58:14;21.40;92.80
42199;DHT22;27868;45.184;5.786;2023-07-02T07:00:59;21.40;92.80
42199;DHT22;27868;45.184;5.786;2023-07-02T07:03:43;21.40;92.80
42199;DHT22;27868;45.184;5.786;2023-07-02T07:06:28;21.50;93.10
42199;DHT22;27868;45.184;5.786;2023-07-02T07:09:13;21.50;92.70
42199;DHT22;27868;45.184;5.786;2023-07-02T07:11:57;21.50;92.40
42199;DHT22;27868;45.184;5.786;2023-07-02T07:14:42;21.60;92.50
42199;DHT22;27868;45.184;5.786;2023-07-02T07:17:27;21.60;92.60
42199;DHT22;27868;45.184;5.786;2023-07-02T07:20:12;21.70;92.60
42199;DHT22;27868;45.184;5.786;2023-07-02T07:22:56;21.70;92.40
42199;DHT22;27868;45.184;5.786;2023-07-02T07:25:41;21.80;92.20
42199;DHT22;27868;45.184;5.786;2023-07-02T07:28:25;21.80;92.30
42199;DHT22;27868;45.184;5.786;2023-07-02T07:31:10;21.90;92.30
42199;DHT22;27868;45.184;5.786;2023-07-02T07:33:54;22.00;92.30
42199;DHT22;27868;45.184;5.786;2023-07-02T07:36:39;22.00;92.20
42199;DHT22;27868;45.184;5.786;2023-07-02T07:39:23;22.10;92.00
42199;DHT22;27868;45.184;5.786;2023-07-02T07:42:08;22.20;91.90
42199;DHT22;27868;45.184;5.786;2023-07-02T07:44:52;22.20;91.70
42199;DHT22;27868;45.184;5.786;2023-07-02T07:47:37;22.20;91.30
42199;DHT22;27868;45.184;5.786;2023-07-02T07:50:22;22.20;91.50
42199;DHT22;27868;45.184;5.786;2023-07-02T07:53:07;22.30;91.20
42199;DHT22;27868;45.184;5.786;2023-07-02T07:55:51;22.40;90.70
42199;DHT22;27868;45.184;5.786;2023-07-02T07:58:36;22.40;90.30
42199;DHT22;27868;45.184;5.786;2023-07-02T08:01:20;22.40;90.30
42199;DHT22;27868;45.184;5.786;2023-07-02T08:04:05;22.40;89.60
42199;DHT22;27868;45.184;5.786;2023-07-02T08:06:50;22.40;90.00
42199;DHT22;27868;45.184;5.786;2023-07-02T08:09:34;22.40;90.10
42199;DHT22;27868;45.184;5.786;2023-07-02T08:12:19;22.40;90.20
42199;DHT22;27868;45.184;5.786;2023-07-02T08:15:03;22.40;89.10
42199;DHT22;27868;45.184;5.786;2023-07-02T08:17:48;22.40;87.00
42199;DHT22;27868;45.184;5.786;2023-07-02T08:20:32;22.30;88.10
42199;DHT22;27868;45.184;5.786;2023-07-02T08:23:17;22.20;88.90
42199;DHT22;27868;45.184;5.786;2023-07-02T08:26:01;22.20;89.40
42199;DHT22;27868;45.184;5.786;2023-07-02T08:28:47;22.10;89.40
42199;DHT22;27868;45.184;5.786;2023-07-02T08:31:31;22.10;86.30
42199;DHT22;27868;45.184;5.786;2023-07-02T08:34:16;22.20;85.30
42199;DHT22;27868;45.184;5.786;2023-07-02T08:37:00;22.10;83.40
42199;DHT22;27868;45.184;5.786;2023-07-02T08:39:45;22.10;85.40
42199;DHT22;27868;45.184;5.786;2023-07-02T08:42:30;22.20;85.50
42199;DHT22;27868;45.184;5.786;2023-07-02T08:45:15;22.20;85.20
42199;DHT22;27868;45.184;5.786;2023-07-02T08:48:03;22.20;85.90
42199;DHT22;27868;45.184;5.786;2023-07-02T08:50:48;22.10;86.40
42199;DHT22;27868;45.184;5.786;2023-07-02T08:53:33;22.20;85.60
42199;DHT22;27868;45.184;5.786;2023-07-02T08:56:18;22.20;84.40
42199;DHT22;27868;45.184;5.786;2023-07-02T08:59:02;22.20;86.10
42199;DHT22;27868;45.184;5.786;2023-07-02T09:01:47;22.30;82.70
42199;DHT22;27868;45.184;5.786;2023-07-02T09:04:32;22.40;84.00
42199;DHT22;27868;45.184;5.786;2023-07-02T09:07:16;22.40;83.90
42199;DHT22;27868;45.184;5.786;2023-07-02T09:10:01;22.50;84.50
42199;DHT22;27868;45.184;5.786;2023-07-02T09:12:45;22.50;84.20
42199;DHT22;27868;45.184;5.786;2023-07-02T09:15:40;22.60;84.20
42199;DHT22;27868;45.184;5.786;2023-07-02T09:18:25;22.50;83.40
42199;DHT22;27868;45.184;5.786;2023-07-02T09:21:09;22.60;83.40
42199;DHT22;27868;45.184;5.786;2023-07-02T09:23:54;22.60;82.80
42199;DHT22;27868;45.184;5.786;2023-07-02T09:26:41;22.60;83.60
42199;DHT22;27868;45.184;5.786;2023-07-02T09:29:26;22.60;84.20
42199;DHT22;27868;45.184;5.786;2023-07-02T09:32:12;22.70;84.20
42199;DHT22;27868;45.184;5.786;2023-07-02T09:34:57;22.80;84.40
42199;DHT22;27868;45.184;5.786;2023-07-02T09:37:42;22.90;84.10
42199;DHT22;27868;45.184;5.786;2023-07-02T09:40:27;22.90;84.20
42199;DHT22;27868;45.184;5.786;2023-07-02T09:43:13;23.10;81.70
42199;DHT22;27868;45.184;5.786;2023-07-02T09:45:58;23.10;81.90
42199;DHT22;27868;45.184;5.786;2023-07-02T09:48:42;23.20;82.00
42199;DHT22;27868;45.184;5.786;2023-07-02T09:51:27;23.30;82.40
42199;DHT22;27868;45.184;5.786;2023-07-02T09:54:12;23.40;81.90
42199;DHT22;27868;45.184;5.786;2023-07-02T09:57:00;23.40;81.10
42199;DHT22;27868;45.184;5.786;2023-07-02T09:59:45;23.50;79.60
42199;DHT22;27868;45.184;5.786;2023-07-02T10:02:29;23.50;79.80
42199;DHT22;27868;45.184;5.786;2023-07-02T10:05:24;23.60;82.20
42199;DHT22;27868;45.184;5.786;2023-07-02T10:08:13;23.70;78.90
42199;DHT22;27868;45.184;5.786;2023-07-02T10:13:59;24.00;79.40
42199;DHT22;27868;45.184;5.786;2023-07-02T10:19:34;24.30;77.30
42199;DHT22;27868;45.184;5.786;2023-07-02T10:22:19;24.40;77.30
42199;DHT22;27868;45.184;5.786;2023-07-02T10:25:03;24.60;77.20
42199;DHT22;27868;45.184;5.786;2023-07-02T10:27:48;24.70;76.90
42199;DHT22;27868;45.184;5.786;2023-07-02T10:30:39;24.80;77.30
42199;DHT22;27868;45.184;5.786;2023-07-02T10:33:24;24.90;78.10
42199;DHT22;27868;45.184;5.786;2023-07-02T10:36:16;25.10;74.90
42199;DHT22;27868;45.184;5.786;2023-07-02T10:39:01;25.30;76.90
42199;DHT22;27868;45.184;5.786;2023-07-02T10:41:49;25.50;76.00
42199;DHT22;27868;45.184;5.786;2023-07-02T10:44:33;25.70;75.90
42199;DHT22;27868;45.184;5.786;2023-07-02T10:47:18;25.90;76.60
42199;DHT22;27868;45.184;5.786;2023-07-02T10:50:13;26.10;75.70
42199;DHT22;27868;45.184;5.786;2023-07-02T10:52:57;26.10;74.10
42199;DHT22;27868;45.184;5.786;2023-07-02T10:55:42;26.10;73.30
42199;DHT22;27868;45.184;5.786;2023-07-02T10:58:27;26.20;73.90
42199;DHT22;27868;45.184;5.786;2023-07-02T11:01:11;26.30;73.70
42199;DHT22;27868;45.184;5.786;2023-07-02T11:06:41;26.80;70.00
42199;DHT22;27868;45.184;5.786;2023-07-02T11:09:26;27.00;73.60
42199;DHT22;27868;45.184;5.786;2023-07-02T11:12:11;27.20;72.90
42199;DHT22;27868;45.184;5.786;2023-07-02T11:14:55;27.40;73.00
42199;DHT22;27868;45.184;5.786;2023-07-02T11:17:40;27.70;72.40
42199;DHT22;27868;45.184;5.786;2023-07-02T11:20:26;28.00;71.30
42199;DHT22;27868;45.184;5.786;2023-07-02T11:26:02;28.20;70.70
42199;DHT22;27868;45.184;5.786;2023-07-02T11:28:47;28.50;70.60
42199;DHT22;27868;45.184;5.786;2023-07-02T11:31:33;28.70;69.10
42199;DHT22;27868;45.184;5.786;2023-07-02T11:34:19;28.90;68.90
42199;DHT22;27868;45.184;5.786;2023-07-02T11:37:04;29.00;66.60
42199;DHT22;27868;45.184;5.786;2023-07-02T11:39:48;29.00;66.20
42199;DHT22;27868;45.184;5.786;2023-07-02T11:42:33;29.20;67.30
42199;DHT22;27868;45.184;5.786;2023-07-02T11:45:18;29.30;66.50
42199;DHT22;27868;45.184;5.786;2023-07-02T11:48:02;29.50;66.40
42199;DHT22;27868;45.184;5.786;2023-07-02T11:50:47;29.70;64.50
42199;DHT22;27868;45.184;5.786;2023-07-02T11:53:31;29.60;59.70
42199;DHT22;27868;45.184;5.786;2023-07-02T11:56:16;29.60;63.70
42199;DHT22;27868;45.184;5.786;2023-07-02T11:59:00;29.60;63.20
42199;DHT22;27868;45.184;5.786;2023-07-02T12:01:45;29.30;59.70
42199;DHT22;27868;45.184;5.786;2023-07-02T12:04:30;29.20;63.10
42199;DHT22;27868;45.184;5.786;2023-07-02T12:07:14;29.10;63.10
42199;DHT22;27868;45.184;5.786;2023-07-02T12:09:59;29.10;61.20
42199;DHT22;27868;45.184;5.786;2023-07-02T12:12:44;29.00;62.00
42199;DHT22;27868;45.184;5.786;2023-07-02T12:15:29;28.90;61.90
42199;DHT22;27868;45.184;5.786;2023-07-02T12:18:13;29.00;63.10
42199;DHT22;27868;45.184;5.786;2023-07-02T12:20:58;28.80;61.60
42199;DHT22;27868;45.184;5.786;2023-07-02T12:23:43;29.00;63.90
42199;DHT22;27868;45.184;5.786;2023-07-02T12:26:27;29.10;63.10
42199;DHT22;27868;45.184;5.786;2023-07-02T12:29:13;29.20;63.80
42199;DHT22;27868;45.184;5.786;2023-07-02T12:31:57;29.30;63.80
42199;DHT22;27868;45.184;5.786;2023-07-02T12:34:42;29.50;62.10
42199;DHT22;27868;45.184;5.786;2023-07-02T12:37:27;29.50;63.60
42199;DHT22;27868;45.184;5.786;2023-07-02T12:40:11;29.60;61.30
42199;DHT22;27868;45.184;5.786;2023-07-02T12:42:56;29.60;60.90
42199;DHT22;27868;45.184;5.786;2023-07-02T12:45:40;29.50;62.00
42199;DHT22;27868;45.184;5.786;2023-07-02T12:48:25;29.00;59.00
42199;DHT22;27868;45.184;5.786;2023-07-02T12:51:10;29.10;62.00
42199;DHT22;27868;45.184;5.786;2023-07-02T12:53:54;29.10;62.60
42199;DHT22;27868;45.184;5.786;2023-07-02T12:56:39;29.00;62.20
42199;DHT22;27868;45.184;5.786;2023-07-02T12:59:23;29.00;61.80
42199;DHT22;27868;45.184;5.786;2023-07-02T13:02:09;29.00;62.50
42199;DHT22;27868;45.184;5.786;2023-07-02T13:04:53;29.00;62.70
42199;DHT22;27868;45.184;5.786;2023-07-02T13:07:40;29.10;62.00
42199;DHT22;27868;45.184;5.786;2023-07-02T13:10:25;29.30;61.40
42199;DHT22;27868;45.184;5.786;2023-07-02T13:13:09;29.30;61.70
42199;DHT22;27868;45.184;5.786;2023-07-02T13:15:54;29.50;62.30
42199;DHT22;27868;45.184;5.786;2023-07-02T13:18:38;29.70;62.10
42199;DHT22;27868;45.184;5.786;2023-07-02T13:21:23;29.90;62.30
42199;DHT22;27868;45.184;5.786;2023-07-02T13:24:08;30.00;60.90
42199;DHT22;27868;45.184;5.786;2023-07-02T13:26:52;29.80;61.00
42199;DHT22;27868;45.184;5.786;2023-07-02T13:29:37;29.90;60.40
42199;DHT22;27868;45.184;5.786;2023-07-02T13:32:22;30.10;60.00
42199;DHT22;27868;45.184;5.786;2023-07-02T13:35:06;30.00;59.80
42199;DHT22;27868;45.184;5.786;2023-07-02T13:37:51;29.90;57.10
42199;DHT22;27868;45.184;5.786;2023-07-02T13:40:35;29.80;59.00
42199;DHT22;27868;45.184;5.786;2023-07-02T13:43:20;29.70;56.20
42199;DHT22;27868;45.184;5.786;2023-07-02T13:46:04;29.70;59.10
42199;DHT22;27868;45.184;5.786;2023-07-02T13:48:49;29.60;58.30
42199;DHT22;27868;45.184;5.786;2023-07-02T13:51:35;29.50;58.60
42199;DHT22;27868;45.184;5.786;2023-07-02T13:54:19;29.40;59.00
42199;DHT22;27868;45.184;5.786;2023-07-02T13:57:04;29.40;58.90
42199;DHT22;27868;45.184;5.786;2023-07-02T13:59:48;29.40;59.60
42199;DHT22;27868;45.184;5.786;2023-07-02T14:02:33;29.50;59.40
42199;DHT22;27868;45.184;5.786;2023-07-02T14:05:18;29.50;59.70
42199;DHT22;27868;45.184;5.786;2023-07-02T14:08:02;29.60;59.60
42199;DHT22;27868;45.184;5.786;2023-07-02T14:10:47;29.60;59.40
42199;DHT22;27868;45.184;5.786;2023-07-02T14:13:31;29.70;59.50
42199;DHT22;27868;45.184;5.786;2023-07-02T14:16:16;29.80;58.90
42199;DHT22;27868;45.184;5.786;2023-07-02T14:19:02;29.80;58.40
42199;DHT22;27868;45.184;5.786;2023-07-02T14:21:47;29.80;58.60
42199;DHT22;27868;45.184;5.786;2023-07-02T14:24:31;29.90;57.80
42199;DHT22;27868;45.184;5.786;2023-07-02T14:27:16;29.90;57.80
42199;DHT22;27868;45.184;5.786;2023-07-02T14:30:00;29.80;57.60
42199;DHT22;27868;45.184;5.786;2023-07-02T14:32:47;29.80;57.70
42199;DHT22;27868;45.184;5.786;2023-07-02T14:35:32;29.70;57.20
42199;DHT22;27868;45.184;5.786;2023-07-02T14:38:16;29.60;54.70
42199;DHT22;27868;45.184;5.786;2023-07-02T14:41:01;29.50;57.00
42199;DHT22;27868;45.184;5.786;2023-07-02T14:43:45;29.40;57.70
42199;DHT22;27868;45.184;5.786;2023-07-02T14:46:30;29.30;56.60
42199;DHT22;27868;45.184;5.786;2023-07-02T14:49:15;28.90;57.50
42199;DHT22;27868;45.184;5.786;2023-07-02T14:51:59;28.90;58.50
42199;DHT22;27868;45.184;5.786;2023-07-02T14:54:44;28.90;57.30
42199;DHT22;27868;45.184;5.786;2023-07-02T14:57:29;28.80;55.60
42199;DHT22;27868;45.184;5.786;2023-07-02T15:00:13;28.80;57.10
42199;DHT22;27868;45.184;5.786;2023-07-02T15:02:58;28.70;58.90
42199;DHT22;27868;45.184;5.786;2023-07-02T15:05:43;28.70;59.10
42199;DHT22;27868;45.184;5.786;2023-07-02T15:08:28;28.70;58.70
42199;DHT22;27868;45.184;5.786;2023-07-02T15:11:13;28.60;58.80
42199;DHT22;27868;45.184;5.786;2023-07-02T15:13:58;28.70;58.30
42199;DHT22;27868;45.184;5.786;2023-07-02T15:16:43;28.60;59.10
42199;DHT22;27868;45.184;5.786;2023-07-02T15:19:28;28.50;59.30
42199;DHT22;27868;45.184;5.786;2023-07-02T15:22:13;28.60;60.20
42199;DHT22;27868;45.184;5.786;2023-07-02T15:24:57;28.60;60.30
42199;DHT22;27868;45.184;5.786;2023-07-02T15:27:42;28.60;60.90
42199;DHT22;27868;45.184;5.786;2023-07-02T15:30:26;28.60;61.10
42199;DHT22;27868;45.184;5.786;2023-07-02T15:33:11;28.50;60.00
42199;DHT22;27868;45.184;5.786;2023-07-02T15:35:58;28.50;57.50
42199;DHT22;27868;45.184;5.786;2023-07-02T15:38:44;28.50;59.30
42199;DHT22;27868;45.184;5.786;2023-07-02T15:41:28;28.40;59.70
42199;DHT22;27868;45.184;5.786;2023-07-02T15:44:13;28.40;59.30
42199;DHT22;27868;45.184;5.786;2023-07-02T15:46:57;28.40;57.20
42199;DHT22;27868;45.184;5.786;2023-07-02T15:49:42;28.30;59.70
42199;DHT22;27868;45.184;5.786;2023-07-02T15:52:26;28.30;59.80
42199;DHT22;27868;45.184;5.786;2023-07-02T15:55:11;28.20;59.70
42199;DHT22;27868;45.184;5.786;2023-07-02T15:57:55;28.10;60.40
42199;DHT22;27868;45.184;5.786;2023-07-02T16:00:40;28.10;60.20
42199;DHT22;27868;45.184;5.786;2023-07-02T16:03:25;28.00;60.70
42199;DHT22;27868;45.184;5.786;2023-07-02T16:06:10;27.90;61.20
42199;DHT22;27868;45.184;5.786;2023-07-02T16:08:54;28.00;61.30
42199;DHT22;27868;45.184;5.786;2023-07-02T16:11:39;27.90;61.50
42199;DHT22;27868;45.184;5.786;2023-07-02T16:14:27;28.00;61.20
42199;DHT22;27868;45.184;5.786;2023-07-02T16:17:11;28.00;60.70
42199;DHT22;27868;45.184;5.786;2023-07-02T16:19:56;27.90;60.50
42199;DHT22;27868;45.184;5.786;2023-07-02T16:22:40;27.90;61.60
42199;DHT22;27868;45.184;5.786;2023-07-02T16:25:25;27.90;61.80
42199;DHT22;27868;45.184;5.786;2023-07-02T16:28:10;27.90;61.40
42199;DHT22;27868;45.184;5.786;2023-07-02T16:30:54;27.80;59.60
42199;DHT22;27868;45.184;5.786;2023-07-02T16:33:39;27.80;60.90
42199;DHT22;27868;45.184;5.786;2023-07-02T16:36:23;27.80;60.20
42199;DHT22;27868;45.184;5.786;2023-07-02T16:39:08;27.80;60.30
42199;DHT22;27868;45.184;5.786;2023-07-02T16:41:54;27.80;59.60
42199;DHT22;27868;45.184;5.786;2023-07-02T16:44:38;27.90;59.80
42199;DHT22;27868;45.184;5.786;2023-07-02T16:47:23;27.90;59.70
42199;DHT22;27868;45.184;5.786;2023-07-02T16:50:07;27.90;59.70
42199;DHT22;27868;45.184;5.786;2023-07-02T16:52:52;27.90;60.20
42199;DHT22;27868;45.184;5.786;2023-07-02T16:55:36;27.90;60.10
42199;DHT22;27868;45.184;5.786;2023-07-02T16:58:23;28.00;60.80
42199;DHT22;27868;45.184;5.786;2023-07-02T17:01:09;28.00;61.50
42199;DHT22;27868;45.184;5.786;2023-07-02T17:03:53;27.90;61.30
42199;DHT22;27868;45.184;5.786;2023-07-02T17:06:38;27.90;61.20
42199;DHT22;27868;45.184;5.786;2023-07-02T17:12:10;27.80;61.80
42199;DHT22;27868;45.184;5.786;2023-07-02T17:14:55;27.80;61.30
42199;DHT22;27868;45.184;5.786;2023-07-02T17:17:40;27.80;60.70
42199;DHT22;27868;45.184;5.786;2023-07-02T17:20:24;27.70;61.50
42199;DHT22;27868;45.184;5.786;2023-07-02T17:23:09;27.70;61.50
42199;DHT22;27868;45.184;5.786;2023-07-02T17:25:58;27.70;61.50
42199;DHT22;27868;45.184;5.786;2023-07-02T17:28:43;27.70;61.20
42199;DHT22;27868;45.184;5.786;2023-07-02T17:31:27;27.60;61.00
42199;DHT22;27868;45.184;5.786;2023-07-02T17:34:13;27.60;61.00